Time;durP1;ratioP1;P1;durP2;ratioP2;P2;SDS_P1;SDS_P2;PMS_P1;PMS_P2;Temp;Humidity;BMP_temperature;BMP_pressure;BME280_temperature;BME280_humidity;BME280_pressure;Samples;Min_cycle;Max_cycle;Signal;HPM_P1;HPM_P2
2023/10/11 00:02:55;;;;;;;4.70;3.33;;;11.20;99.90;;;;;;4981451;28;20043;-33
2023/10/11 00:05:22;;;;;;;5.25;3.50;;;11.20;99.90;;;;;;4982585;28;20026;-33
2023/10/11 00:07:48;;;;;;;8.38;3.83;;;11.20;99.90;;;;;;4976336;28;20031;-33
2023/10/11 00:10:19;;;;;;;5.50;3.22;;;11.20;99.90;;;;;;4982135;28;20049;-32
2023/10/11 00:12:45;;;;;;;5.18;3.15;;;11.20;99.90;;;;;;4981982;28;20014;-32
2023/10/11 00:15:11;;;;;;;7.60;3.10;;;11.10;99.90;;;;;;4988274;28;20552;-34
2023/10/11 00:17:37;;;;;;;3.50;3.20;;;11.10;99.90;;;;;;4980035;28;20114;-33
2023/10/11 00:20:15;;;;;;;6.18;3.05;;;11.00;99.90;;;;;;4976996;28;20133;-32
2023/10/11 00:22:41;;;;;;;8.45;2.95;;;11.00;99.90;;;;;;4985069;28;20492;-34
2023/10/11 00:25:07;;;;;;;7.35;3.15;;;11.00;99.90;;;;;;4980951;28;20093;-32
2023/10/11 00:27:33;;;;;;;6.38;3.55;;;11.00;99.90;;;;;;4976482;28;20049;-32
2023/10/11 00:29:59;;;;;;;6.25;3.28;;;11.00;99.90;;;;;;4981762;28;20042;-33
2023/10/11 00:32:24;;;;;;;6.15;2.83;;;11.00;99.90;;;;;;4980819;28;20038;-37
2023/10/11 00:34:50;;;;;;;5.03;2.85;;;11.00;99.90;;;;;;4985231;28;20045;-32
2023/10/11 00:37:16;;;;;;;4.07;2.58;;;10.90;99.90;;;;;;4978708;28;20534;-33
2023/10/11 00:39:43;;;;;;;4.00;2.40;;;10.80;99.90;;;;;;4984126;28;20028;-37
2023/10/11 00:42:10;;;;;;;4.20;2.75;;;10.60;99.90;;;;;;4979782;28;20038;-33
2023/10/11 00:44:36;;;;;;;4.82;2.97;;;10.50;99.90;;;;;;4979915;28;20073;-33
2023/10/11 00:47:06;;;;;;;4.63;2.97;;;10.40;99.90;;;;;;4978994;28;20062;-32
2023/10/11 00:49:39;;;;;;;3.97;2.80;;;10.30;99.90;;;;;;4986923;28;20026;-33
2023/10/11 00:52:08;;;;;;;4.72;2.67;;;10.10;99.90;;;;;;4985347;28;20133;-31
2023/10/11 00:54:37;;;;;;;3.88;2.28;;;10.10;99.90;;;;;;4985665;28;20165;-31
2023/10/11 00:57:03;;;;;;;4.05;2.50;;;10.00;99.90;;;;;;4985759;28;20153;-30
2023/10/11 00:59:30;;;;;;;4.00;2.65;;;9.80;99.90;;;;;;4984153;28;20031;-31
2023/10/11 01:01:58;;;;;;;3.47;2.47;;;9.80;99.90;;;;;;4981520;28;20416;-30
2023/10/11 01:04:33;;;;;;;3.92;2.92;;;9.90;99.90;;;;;;4989967;28;20064;-39
2023/10/11 01:06:59;;;;;;;3.63;2.53;;;9.90;99.90;;;;;;4988952;28;20121;-30
2023/10/11 01:09:29;;;;;;;5.28;2.70;;;10.00;99.90;;;;;;4985734;28;20153;-33
2023/10/11 01:11:54;;;;;;;4.43;3.00;;;10.10;99.90;;;;;;4876174;28;20034;-30
2023/10/11 01:14:23;;;;;;;4.25;3.40;;;10.20;99.90;;;;;;4986688;28;20109;-33
2023/10/11 01:16:51;;;;;;;5.65;2.97;;;10.20;99.90;;;;;;4981714;28;20132;-31
2023/10/11 01:19:18;;;;;;;;;;;10.20;99.90;;;;;;4989526;28;20034;-30
2023/10/11 01:21:48;;;;;;;5.65;3.33;;;10.20;99.90;;;;;;4987261;28;19906;-31
2023/10/11 01:24:16;;;;;;;5.82;3.10;;;10.20;99.90;;;;;;4988293;28;20117;-30
2023/10/11 01:26:42;;;;;;;6.55;3.53;;;10.20;99.90;;;;;;4990220;28;20045;-36
2023/10/11 01:29:09;;;;;;;5.88;3.20;;;10.20;99.90;;;;;;4992110;28;20492;-30
2023/10/11 01:31:35;;;;;;;6.28;3.22;;;10.20;99.90;;;;;;4987782;28;20038;-30
2023/10/11 01:34:02;;;;;;;4.60;2.88;;;10.20;99.90;;;;;;4979736;28;20674;-29
2023/10/11 01:36:27;;;;;;;9.35;3.58;;;10.20;99.90;;;;;;4979798;28;20093;-30
2023/10/11 01:38:53;;;;;;;3.55;2.67;;;10.20;99.90;;;;;;4987543;28;20030;-30
2023/10/11 01:41:22;;;;;;;6.32;2.33;;;10.00;99.90;;;;;;4987998;28;20084;-30
2023/10/11 01:43:52;;;;;;;6.97;2.60;;;9.60;99.90;;;;;;4982283;28;20491;-30
2023/10/11 01:46:24;;;;;;;4.57;2.78;;;9.50;99.90;;;;;;4995461;28;20377;-30
2023/10/11 01:48:51;;;;;;;5.18;2.85;;;9.50;99.90;;;;;;4981939;28;20540;-33
2023/10/11 01:51:25;;;;;;;4.78;2.90;;;9.40;99.90;;;;;;4985926;28;20031;-30
2023/10/11 01:53:54;;;;;;;4.28;2.83;;;9.20;99.90;;;;;;4985145;28;20042;-29
2023/10/11 01:56:23;;;;;;;4.30;2.75;;;9.10;99.90;;;;;;4986591;28;20396;-32
2023/10/11 01:58:56;;;;;;;6.03;2.95;;;9.00;99.90;;;;;;4984531;28;20073;-30
2023/10/11 02:01:26;;;;;;;6.65;3.05;;;9.00;99.90;;;;;;4994322;28;20046;-30
2023/10/11 02:03:59;;;;;;;5.80;2.75;;;9.10;99.90;;;;;;4987314;28;20502;-29
2023/10/11 02:06:26;;;;;;;11.30;3.22;;;9.10;99.90;;;;;;4982638;28;20032;-37
2023/10/11 02:08:52;;;;;;;5.05;2.70;;;9.20;99.90;;;;;;4982393;28;20042;-31
2023/10/11 02:11:24;;;;;;;4.40;2.75;;;9.30;99.90;;;;;;4951478;28;1087129;-33
2023/10/11 02:13:50;;;;;;;9.15;2.97;;;9.30;99.90;;;;;;4988269;28;20038;-29
2023/10/11 02:16:16;;;;;;;3.33;2.70;;;9.40;99.90;;;;;;4982901;28;20357;-30
2023/10/11 02:18:42;;;;;;;3.95;2.58;;;9.30;99.90;;;;;;4980960;28;20041;-36
2023/10/11 02:21:08;;;;;;;5.38;2.60;;;9.30;99.90;;;;;;4988198;28;20027;-30
2023/10/11 02:23:39;;;;;;;4.20;2.60;;;9.20;99.90;;;;;;4986700;28;20404;-29
2023/10/11 02:26:09;;;;;;;3.92;2.85;;;9.00;99.90;;;;;;4985142;28;20030;-29
2023/10/11 02:28:38;;;;;;;4.63;2.63;;;9.00;99.90;;;;;;4980997;28;20061;-33
2023/10/11 02:31:05;;;;;;;5.03;3.03;;;9.00;99.90;;;;;;4986315;28;20030;-30
2023/10/11 02:33:32;;;;;;;5.97;2.85;;;9.00;99.90;;;;;;4986337;28;20034;-29
2023/10/11 02:36:08;;;;;;;7.40;2.67;;;9.00;99.90;;;;;;4988936;28;20033;-29
2023/10/11 02:38:39;;;;;;;4.07;2.58;;;9.10;99.90;;;;;;4988775;28;20030;-29
2023/10/11 02:41:05;;;;;;;5.45;2.90;;;9.10;99.90;;;;;;4988448;28;20025;-30
2023/10/11 02:43:33;;;;;;;5.75;2.95;;;9.00;99.90;;;;;;4987189;28;20073;-30
2023/10/11 02:45:59;;;;;;;;;;;9.00;99.90;;;;;;4983304;28;20059;-32
2023/10/11 02:48:27;;;;;;;2.60;2.13;;;9.10;99.90;;;;;;4986041;28;20279;-33
2023/10/11 02:50:55;;;;;;;1.65;1.55;;;9.10;99.90;;;;;;4980627;28;20085;-31
2023/10/11 02:53:21;;;;;;;;;;;9.20;99.90;;;;;;4975766;28;20046;-30
2023/10/11 02:55:59;;;;;;;5.00;2.10;;;9.20;99.90;;;;;;4986240;28;19917;-32
2023/10/11 02:58:31;;;;;;;4.78;2.20;;;9.20;99.90;;;;;;4983484;28;20125;-34
2023/10/11 03:01:05;;;;;;;5.93;2.65;;;9.20;99.90;;;;;;4984479;28;20035;-31
2023/10/11 03:03:31;;;;;;;6.68;2.97;;;9.20;99.90;;;;;;4984794;28;20851;-32
2023/10/11 03:05:56;;;;;;;5.07;2.95;;;9.20;99.90;;;;;;4984850;28;20026;-30
2023/10/11 03:08:26;;;;;;;4.32;2.63;;;9.10;99.90;;;;;;4991996;28;20041;-30
2023/10/11 03:10:57;;;;;;;3.08;2.25;;;9.10;99.90;;;;;;4985511;28;20058;-40
2023/10/11 03:13:24;;;;;;;6.13;3.20;;;9.10;99.90;;;;;;4988828;28;20039;-29
2023/10/11 03:15:56;;;;;;;5.70;3.47;;;9.10;99.90;;;;;;4984550;28;20039;-34
2023/10/11 03:18:25;;;;;;;9.40;3.47;;;9.10;99.90;;;;;;4989664;28;20270;-30
2023/10/11 03:21:09;;;;;;;8.30;3.55;;;9.10;99.90;;;;;;4977719;28;20011;-30
2023/10/11 03:23:45;;;;;;;8.48;4.00;;;9.10;99.90;;;;;;4981630;28;20034;-30
2023/10/11 03:26:17;;;;;;;6.20;4.40;;;9.00;99.90;;;;;;4988201;28;20026;-29
2023/10/11 03:28:58;;;;;;;6.32;3.42;;;9.00;99.90;;;;;;4981170;28;20057;-31
2023/10/11 03:31:29;;;;;;;4.10;3.78;;;9.00;99.90;;;;;;4982031;28;20041;-35
2023/10/11 03:34:00;;;;;;;3.95;2.67;;;8.90;99.90;;;;;;4989851;28;20499;-29
2023/10/11 03:36:29;;;;;;;7.93;2.40;;;8.70;99.90;;;;;;4984646;28;20084;-33
2023/10/11 03:38:54;;;;;;;4.55;2.50;;;8.60;99.90;;;;;;4989136;28;20022;-34
2023/10/11 03:41:29;;;;;;;3.25;2.47;;;8.70;99.90;;;;;;4984278;28;20031;-30
2023/10/11 03:44:09;;;;;;;5.38;2.25;;;8.70;99.90;;;;;;4985394;28;20022;-31
2023/10/11 03:46:35;;;;;;;1.95;1.75;;;8.70;99.90;;;;;;4986275;28;20555;-29
2023/10/11 03:52:00;;;;;;;2.20;2.00;;;8.70;99.90;;;;;;4955189;28;20447;-35
2023/10/11 03:54:26;;;;;;;2.38;2.15;;;8.70;99.90;;;;;;4981804;28;20030;-32
2023/10/11 03:56:53;;;;;;;2.50;2.30;;;8.70;99.90;;;;;;4979785;28;20034;-30
2023/10/11 03:59:28;;;;;;;3.30;2.40;;;8.80;99.90;;;;;;4977537;28;20026;-31
2023/10/11 04:01:58;;;;;;;3.90;2.42;;;8.80;99.90;;;;;;4979029;28;20035;-32
2023/10/11 04:04:25;;;;;;;5.15;2.65;;;8.80;99.90;;;;;;4980343;28;20687;-35
2023/10/11 04:07:05;;;;;;;4.68;2.58;;;8.80;99.90;;;;;;4978567;28;20092;-38
2023/10/11 04:09:33;;;;;;;3.28;3.00;;;8.80;99.90;;;;;;4985144;28;20026;-30
2023/10/11 04:12:03;;;;;;;4.18;2.60;;;8.80;99.90;;;;;;4983386;28;20577;-29
2023/10/11 04:14:45;;;;;;;3.78;2.47;;;8.80;99.90;;;;;;4990124;28;20508;-31
2023/10/11 04:19:48;;;;;;;3.17;2.50;;;8.80;99.90;;;;;;4979148;28;20027;-30
2023/10/11 04:22:17;;;;;;;2.35;2.00;;;8.70;99.90;;;;;;4983147;28;20034;-39
2023/10/11 04:24:48;;;;;;;4.55;2.65;;;8.60;99.90;;;;;;4977834;28;20139;-35
2023/10/11 04:29:47;;;;;;;5.03;2.50;;;8.50;99.90;;;;;;4987807;28;20058;-40
2023/10/11 04:32:41;;;;;;;6.05;3.00;;;8.60;99.90;;;;;;4982829;28;20464;-38
2023/10/11 04:38:03;;;;;;;4.40;2.97;;;8.60;99.90;;;;;;4982607;28;20041;-32
2023/10/11 04:43:07;;;;;;;3.28;2.60;;;8.60;99.90;;;;;;4976438;28;20070;-40
2023/10/11 04:45:47;;;;;;;3.78;2.72;;;8.60;99.90;;;;;;4982274;28;20507;-40
2023/10/11 04:48:30;;;;;;;3.40;2.78;;;8.60;99.90;;;;;;4985860;28;20395;-40
2023/10/11 04:51:21;;;;;;;4.25;2.90;;;8.60;99.90;;;;;;4979781;28;20122;-40
2023/10/11 04:59:07;;;;;;;2.95;2.38;;;8.70;99.90;;;;;;4978530;28;20116;-36
2023/10/11 05:04:26;;;;;;;;;;;8.70;99.90;;;;;;4990734;28;20113;-41
2023/10/11 05:06:53;;;;;;;10.43;2.97;;;8.70;99.90;;;;;;4977256;28;20016;-40
2023/10/11 05:11:50;;;;;;;5.97;2.63;;;8.60;99.90;;;;;;4978125;28;20057;-40
2023/10/11 05:20:08;;;;;;;4.82;3.35;;;8.30;99.90;;;;;;4983149;28;20034;-39
2023/10/11 05:28:07;;;;;;;3.20;2.40;;;8.20;99.90;;;;;;4976044;28;20124;-40
2023/10/11 05:30:34;;;;;;;4.50;2.65;;;8.20;99.90;;;;;;4979491;28;20093;-40
2023/10/11 05:36:13;;;;;;;3.53;2.45;;;8.20;99.90;;;;;;4982623;28;20025;-31
2023/10/11 05:52:17;;;;;;;5.00;2.92;;;7.80;99.90;;;;;;4988278;28;20084;-30
2023/10/11 05:54:43;;;;;;;5.05;3.15;;;7.90;99.90;;;;;;4982044;28;20114;-33
2023/10/11 05:57:11;;;;;;;4.53;2.85;;;7.90;99.90;;;;;;4986525;28;20480;-37
2023/10/11 05:59:37;;;;;;;5.45;2.88;;;7.80;99.90;;;;;;4991128;28;20134;-32
2023/10/11 06:02:18;;;;;;;5.88;3.47;;;7.90;99.90;;;;;;4990397;28;20117;-34
2023/10/11 06:04:45;;;;;;;5.65;3.20;;;7.90;99.90;;;;;;4985812;28;20712;-31
2023/10/11 06:07:13;;;;;;;3.67;3.10;;;7.90;99.90;;;;;;4979740;28;20063;-30
2023/10/11 06:09:43;;;;;;;7.53;3.50;;;7.90;99.90;;;;;;4989559;28;20064;-30
2023/10/11 06:12:29;;;;;;;9.77;3.80;;;8.10;99.90;;;;;;4988600;28;20050;-30
2023/10/11 06:14:56;;;;;;;7.38;3.55;;;8.10;99.90;;;;;;4981499;28;20034;-31
2023/10/11 06:17:48;;;;;;;7.57;3.50;;;8.20;99.90;;;;;;4986314;28;20448;-31
2023/10/11 06:20:38;;;;;;;6.53;3.58;;;8.20;99.90;;;;;;4988643;28;20022;-30
2023/10/11 06:23:03;;;;;;;7.60;3.60;;;8.30;99.90;;;;;;4988025;28;20042;-30
2023/10/11 06:28:30;;;;;;;13.40;4.90;;;8.40;99.90;;;;;;4954334;28;20066;-31
2023/10/11 07:55:17;;;;;;;7.63;3.67;;;11.80;99.90;;;;;;4944288;28;20070;-30
2023/10/11 07:57:46;;;;;;;8.13;3.95;;;12.00;99.90;;;;;;4989184;28;20038;-36
2023/10/11 08:00:17;;;;;;;8.95;3.45;;;12.10;99.90;;;;;;4982123;28;20037;-29
2023/10/11 08:02:55;;;;;;;6.25;3.38;;;12.30;99.90;;;;;;4987386;28;20023;-31
2023/10/11 08:05:24;;;;;;;7.22;3.08;;;12.50;99.90;;;;;;4985682;28;20054;-30
2023/10/11 08:07:50;;;;;;;9.93;4.00;;;12.70;99.90;;;;;;4984454;28;20439;-32
2023/10/11 08:10:33;;;;;;;7.97;3.97;;;13.00;99.90;;;;;;4979469;28;20039;-31
2023/10/11 08:13:02;;;;;;;6.53;3.70;;;13.10;99.90;;;;;;4983628;28;20120;-30
2023/10/11 08:15:28;;;;;;;9.60;3.80;;;13.40;99.90;;;;;;4984284;28;20109;-35
2023/10/11 08:17:54;;;;;;;6.53;3.30;;;13.60;99.90;;;;;;4984904;28;20097;-32
2023/10/11 08:20:24;;;;;;;10.68;4.18;;;13.80;99.90;;;;;;4983941;28;20035;-32
2023/10/11 08:22:50;;;;;;;9.00;3.78;;;13.90;99.90;;;;;;4961386;28;20081;-32
2023/10/11 08:25:15;;;;;;;7.72;3.13;;;14.10;99.90;;;;;;4980409;28;20018;-31
2023/10/11 08:27:41;;;;;;;11.38;4.38;;;14.20;99.90;;;;;;4987250;28;20049;-37
2023/10/11 08:32:42;;;;;;;7.85;3.30;;;14.60;99.90;;;;;;4989182;28;20034;-29
2023/10/11 08:35:10;;;;;;;7.35;3.20;;;14.90;99.90;;;;;;4982722;28;20041;-33
2023/10/11 08:37:37;;;;;;;10.50;3.15;;;15.10;99.90;;;;;;4989348;28;20038;-30
2023/10/11 08:40:39;;;;;;;8.25;2.85;;;15.20;99.90;;;;;;4981118;28;20034;-29
2023/10/11 08:43:01;;;;;;;11.10;3.58;;;15.40;99.90;;;;;;4979356;28;20078;-30
2023/10/11 08:45:28;;;;;;;8.40;3.30;;;15.60;99.90;;;;;;4985760;28;20038;-30
2023/10/11 08:47:55;;;;;;;6.32;3.03;;;15.80;99.90;;;;;;4988928;28;20388;-30
2023/10/11 08:50:21;;;;;;;6.78;3.17;;;15.90;99.90;;;;;;4978368;28;20472;-30
2023/10/11 08:52:47;;;;;;;7.38;3.00;;;16.10;99.90;;;;;;4986259;28;20034;-30
2023/10/11 08:55:14;;;;;;;7.45;3.78;;;16.30;99.90;;;;;;4987436;28;20073;-30
2023/10/11 08:57:39;;;;;;;9.55;3.25;;;16.50;99.90;;;;;;4985874;28;20057;-30
2023/10/11 09:00:17;;;;;;;5.35;3.42;;;16.70;99.90;;;;;;4979674;28;20498;-29
2023/10/11 09:02:48;;;;;;;7.50;3.22;;;16.90;99.90;;;;;;4981085;28;20288;-34
2023/10/11 09:05:29;;;;;;;5.97;2.67;;;17.00;99.90;;;;;;4981312;28;20085;-32
2023/10/11 09:07:55;;;;;;;6.97;2.97;;;17.30;99.90;;;;;;4987182;28;20145;-33
2023/10/11 09:10:27;;;;;;;8.77;3.25;;;17.40;99.90;;;;;;4990974;28;20038;-32
2023/10/11 09:12:57;;;;;;;9.23;2.88;;;17.60;99.90;;;;;;4981630;28;20030;-32
2023/10/11 09:15:33;;;;;;;9.95;3.08;;;17.70;99.90;;;;;;4988441;28;20407;-37
2023/10/11 09:18:15;;;;;;;7.65;2.90;;;17.90;99.90;;;;;;4983090;28;20026;-31
2023/10/11 09:20:43;;;;;;;7.05;2.55;;;18.00;99.90;;;;;;4984514;28;20287;-35
2023/10/11 09:23:11;;;;;;;7.75;2.83;;;18.20;99.90;;;;;;4995256;28;20109;-32
2023/10/11 09:25:57;;;;;;;6.32;3.03;;;18.30;99.90;;;;;;4980115;28;20031;-32
2023/10/11 09:28:27;;;;;;;6.35;2.83;;;18.60;99.90;;;;;;4989219;28;20133;-32
2023/10/11 09:31:11;;;;;;;7.43;2.35;;;18.60;99.90;;;;;;4991929;28;20026;-32
2023/10/11 09:33:40;;;;;;;8.10;2.83;;;18.80;99.90;;;;;;4987028;28;20503;-34
2023/10/11 09:36:06;;;;;;;6.63;2.40;;;18.90;99.90;;;;;;4980436;28;20042;-32
2023/10/11 09:38:39;;;;;;;4.80;2.85;;;19.00;99.90;;;;;;4986893;28;20030;-33
2023/10/11 09:41:08;;;;;;;5.10;2.40;;;19.10;99.90;;;;;;4985786;28;20023;-34
2023/10/11 09:43:44;;;;;;;6.88;2.63;;;19.20;99.90;;;;;;4988515;28;20446;-31
2023/10/11 09:46:13;;;;;;;8.23;3.45;;;19.30;99.90;;;;;;4984885;28;20034;-33
2023/10/11 09:48:43;;;;;;;7.35;3.00;;;19.40;99.90;;;;;;4990271;28;20032;-33
2023/10/11 09:51:13;;;;;;;8.10;2.88;;;19.60;99.90;;;;;;4981723;28;20037;-31
2023/10/11 09:53:49;;;;;;;7.10;2.30;;;19.70;99.90;;;;;;4987010;28;20060;-32
2023/10/11 09:56:48;;;;;;;7.80;2.47;;;19.80;99.90;;;;;;4982513;28;20030;-32
2023/10/11 09:59:51;;;;;;;12.20;2.42;;;19.90;99.90;;;;;;4986200;28;20373;-31
2023/10/11 10:02:23;;;;;;;5.93;2.70;;;20.00;99.90;;;;;;4984350;28;20054;-32
2023/10/11 10:04:51;;;;;;;7.72;2.88;;;20.10;99.90;;;;;;4984107;28;20085;-31
2023/10/11 10:08:01;;;;;;;8.95;3.20;;;20.30;99.90;;;;;;4986200;28;20038;-32
2023/10/11 10:10:08;;;;;;;7.93;2.80;;;20.30;99.90;;;;;;4977735;28;20042;-32
2023/10/11 10:12:40;;;;;;;7.57;2.22;;;20.40;99.90;;;;;;4982969;28;20045;-31
2023/10/11 10:15:13;;;;;;;5.85;2.53;;;20.50;99.90;;;;;;4987672;28;20049;-31
2023/10/11 10:18:00;;;;;;;6.28;2.63;;;20.60;99.90;;;;;;4992606;28;20038;-31
2023/10/11 10:20:34;;;;;;;4.57;2.35;;;20.70;99.90;;;;;;4992007;28;20025;-30
2023/10/11 10:23:20;;;;;;;10.13;2.78;;;20.60;99.90;;;;;;4986240;28;20030;-30
2023/10/11 10:25:48;;;;;;;7.18;2.60;;;20.70;99.90;;;;;;4990301;28;20029;-30
2023/10/11 10:28:34;;;;;;;7.70;2.70;;;20.80;99.90;;;;;;4990645;28;20026;-30
2023/10/11 10:31:13;;;;;;;10.13;3.70;;;20.70;99.90;;;;;;4988178;28;20266;-29
2023/10/11 10:33:52;;;;;;;9.85;2.88;;;20.70;99.90;;;;;;4986030;28;20035;-30
2023/10/11 10:36:21;;;;;;;9.20;2.75;;;20.90;99.90;;;;;;4987454;28;20034;-29
2023/10/11 10:41:40;;;;;;;7.43;2.63;;;21.00;99.90;;;;;;4985366;28;20022;-32
2023/10/11 10:44:18;;;;;;;8.18;2.72;;;21.00;99.90;;;;;;4985968;28;20090;-34
2023/10/11 10:46:54;;;;;;;12.23;2.50;;;21.10;99.90;;;;;;4981685;28;20085;-30
2023/10/11 10:49:23;;;;;;;7.50;2.65;;;21.10;99.90;;;;;;4984138;28;20485;-30
2023/10/11 10:51:49;;;;;;;7.10;2.38;;;21.20;99.90;;;;;;4988551;28;20099;-29
2023/10/11 10:54:21;;;;;;;5.57;2.85;;;21.30;99.90;;;;;;4983263;28;20042;-30
2023/10/11 10:56:48;;;;;;;8.93;2.63;;;21.40;99.90;;;;;;4981032;28;20073;-30
2023/10/11 10:59:20;;;;;;;7.75;2.40;;;21.40;99.90;;;;;;4977091;28;20385;-29
2023/10/11 11:01:47;;;;;;;10.82;3.20;;;21.40;99.90;;;;;;4975735;28;20499;-32
2023/10/11 11:04:15;;;;;;;8.75;2.60;;;21.40;99.90;;;;;;4983431;28;20026;-29
2023/10/11 11:06:46;;;;;;;6.05;3.40;;;21.50;99.90;;;;;;4979773;28;20496;-31
2023/10/11 11:09:14;;;;;;;13.18;3.10;;;21.50;99.90;;;;;;4986498;28;20503;-29
2023/10/11 11:11:43;;;;;;;8.52;2.55;;;21.50;99.90;;;;;;4984440;28;20077;-34
2023/10/11 11:14:10;;;;;;;9.05;3.15;;;21.60;99.90;;;;;;4985126;28;20038;-30
2023/10/11 11:16:40;;;;;;;7.30;2.58;;;21.70;99.90;;;;;;4981781;28;20092;-30
2023/10/11 11:19:17;;;;;;;6.30;2.67;;;21.70;99.90;;;;;;4984699;28;20039;-29
2023/10/11 11:21:46;;;;;;;5.57;2.78;;;21.70;99.90;;;;;;4988712;28;20402;-34
2023/10/11 11:24:38;;;;;;;10.63;3.25;;;21.60;99.90;;;;;;4984175;28;20030;-40
2023/10/11 11:27:18;;;;;;;9.98;2.92;;;21.60;99.90;;;;;;4987631;28;20031;-41
2023/10/11 11:29:47;;;;;;;8.68;2.72;;;21.60;99.90;;;;;;4984903;28;20089;-38
2023/10/11 11:32:16;;;;;;;10.10;2.88;;;21.70;99.90;;;;;;4965277;28;20034;-39
2023/10/11 11:35:02;;;;;;;9.60;3.08;;;21.70;99.90;;;;;;4983831;28;20117;-36
2023/10/11 11:37:34;;;;;;;7.00;2.72;;;21.80;99.90;;;;;;4987302;28;20034;-39
2023/10/11 11:40:19;;;;;;;12.02;2.65;;;21.80;99.90;;;;;;4986321;28;20037;-38
2023/10/11 11:42:47;;;;;;;9.38;2.70;;;21.70;99.90;;;;;;4981390;28;20568;-39
2023/10/11 11:45:17;;;;;;;9.98;3.00;;;21.70;99.90;;;;;;4982943;28;20468;-40
2023/10/11 11:47:58;;;;;;;6.68;2.90;;;21.80;99.90;;;;;;4987822;28;20126;-37
2023/10/11 11:50:33;;;;;;;8.35;2.88;;;21.80;99.90;;;;;;4981989;28;20030;-37
2023/10/11 11:53:00;;;;;;;7.57;3.15;;;21.90;99.90;;;;;;4981516;28;20244;-40
2023/10/11 11:55:26;;;;;;;6.67;3.03;;;21.80;99.90;;;;;;4980721;28;20058;-36
2023/10/11 11:57:55;;;;;;;9.93;2.90;;;22.00;99.90;;;;;;4980044;28;20030;-41
2023/10/11 12:02:53;;;;;;;10.10;3.00;;;22.10;99.90;;;;;;4981042;28;20322;-39
2023/10/11 12:05:19;;;;;;;11.85;3.50;;;22.10;99.90;;;;;;4976563;28;20133;-39
2023/10/11 12:07:44;;;;;;;7.88;3.10;;;22.10;99.90;;;;;;4985850;28;20113;-39
2023/10/11 12:10:23;;;;;;;11.88;3.20;;;22.20;99.90;;;;;;4979068;28;20038;-39
2023/10/11 12:12:52;;;;;;;8.80;2.78;;;22.20;99.90;;;;;;4979844;28;20030;-37
2023/10/11 12:15:18;;;;;;;6.93;2.78;;;22.30;99.90;;;;;;4998718;28;20034;-39
2023/10/11 12:17:54;;;;;;;7.63;2.92;;;22.20;99.90;;;;;;4988857;28;20170;-36
2023/10/11 12:20:22;;;;;;;8.35;2.83;;;22.30;99.90;;;;;;4979774;28;20041;-38
2023/10/11 12:22:50;;;;;;;6.38;3.08;;;22.30;99.90;;;;;;4977491;28;20034;-39
2023/10/11 12:25:24;;;;;;;7.55;2.83;;;22.40;99.90;;;;;;4979226;28;20084;-39
2023/10/11 12:27:50;;;;;;;6.95;2.60;;;22.50;99.90;;;;;;4986561;28;20065;-39
2023/10/11 12:30:22;;;;;;;8.88;2.75;;;22.50;99.90;;;;;;4983008;28;20081;-40
2023/10/11 12:32:49;;;;;;;8.70;3.30;;;22.50;99.90;;;;;;4983881;28;20389;-39
2023/10/11 12:35:15;;;;;;;8.98;2.55;;;22.50;99.90;;;;;;4978385;28;20034;-40
2023/10/11 12:37:41;;;;;;;7.45;2.85;;;22.60;99.90;;;;;;4984491;28;20035;-33
2023/10/11 12:40:21;;;;;;;9.25;3.38;;;22.70;99.90;;;;;;4984504;28;20034;-38
2023/10/11 12:42:48;;;;;;;4.45;2.47;;;22.70;99.90;;;;;;4981583;28;20089;-39
2023/10/11 12:45:16;;;;;;;7.32;2.95;;;22.70;99.90;;;;;;4983973;28;20019;-40
2023/10/11 12:47:42;;;;;;;8.82;2.80;;;22.70;99.90;;;;;;4984522;28;20093;-33
2023/10/11 12:50:08;;;;;;;7.90;2.80;;;22.70;99.90;;;;;;4989471;28;20053;-40
2023/10/11 12:52:37;;;;;;;4.82;2.85;;;22.80;99.90;;;;;;4984802;28;20404;-40
2023/10/11 12:55:06;;;;;;;9.40;2.80;;;22.80;99.90;;;;;;4982611;28;20077;-40
2023/10/11 12:57:33;;;;;;;8.93;2.88;;;22.90;99.90;;;;;;4991573;28;20044;-41
2023/10/11 12:59:58;;;;;;;5.28;2.75;;;22.80;99.90;;;;;;4984868;28;20053;-40
2023/10/11 13:02:33;;;;;;;10.13;2.67;;;22.90;99.90;;;;;;4984757;28;20101;-33
2023/10/11 13:04:59;;;;;;;10.15;2.70;;;22.90;99.90;;;;;;4986463;28;20068;-39
2023/10/11 13:07:29;;;;;;;12.63;2.80;;;22.90;99.90;;;;;;4985532;28;20118;-36
2023/10/11 13:09:58;;;;;;;7.05;2.55;;;22.90;99.90;;;;;;4985068;28;20030;-37
2023/10/11 13:12:24;;;;;;;11.13;2.65;;;22.80;99.90;;;;;;4988287;28;20061;-32
2023/10/11 13:14:51;;;;;;;7.65;2.50;;;22.90;99.90;;;;;;4985894;28;20070;-41
2023/10/11 13:17:16;;;;;;;7.80;2.65;;;22.90;99.90;;;;;;4984953;28;20102;-39
2023/10/11 13:19:45;;;;;;;9.05;2.90;;;22.90;99.90;;;;;;4983951;28;20114;-33
2023/10/11 13:22:12;;;;;;;5.15;2.10;;;22.90;99.90;;;;;;4991546;28;20184;-40
2023/10/11 13:24:38;;;;;;;6.53;2.65;;;22.90;99.90;;;;;;4984225;28;20432;-40
2023/10/11 13:27:07;;;;;;;7.60;2.40;;;23.00;99.90;;;;;;4982736;28;20105;-40
2023/10/11 13:29:33;;;;;;;6.28;2.45;;;23.00;99.90;;;;;;4981147;28;20458;-39
2023/10/11 13:31:58;;;;;;;9.90;2.75;;;23.00;99.90;;;;;;4987248;28;20062;-39
2023/10/11 13:34:29;;;;;;;7.65;2.50;;;23.00;99.90;;;;;;4987951;28;20124;-33
2023/10/11 13:36:57;;;;;;;9.38;2.78;;;23.00;99.90;;;;;;4986850;28;20030;-39
2023/10/11 13:39:38;;;;;;;11.07;2.90;;;23.10;99.90;;;;;;4983178;28;20105;-36
2023/10/11 13:42:04;;;;;;;5.75;2.45;;;23.00;99.90;;;;;;4983871;28;20061;-39
2023/10/11 13:44:32;;;;;;;11.88;3.35;;;23.10;99.90;;;;;;4986869;28;20742;-39
2023/10/11 13:46:58;;;;;;;7.07;2.30;;;23.10;99.90;;;;;;4987368;28;20030;-39
2023/10/11 13:49:26;;;;;;;7.45;2.97;;;23.10;99.90;;;;;;4981232;28;20859;-33
2023/10/11 13:52:03;;;;;;;5.32;2.50;;;23.10;99.90;;;;;;4989732;28;20465;-41
2023/10/11 13:54:36;;;;;;;6.23;2.50;;;23.20;99.90;;;;;;4985246;28;20419;-38
2023/10/11 13:57:10;;;;;;;12.02;3.22;;;23.20;99.90;;;;;;4986949;28;20572;-37
2023/10/11 13:59:45;;;;;;;8.05;2.53;;;23.20;99.90;;;;;;4985097;28;20022;-38
2023/10/11 14:02:35;;;;;;;5.60;2.60;;;23.20;99.90;;;;;;4983483;28;20046;-41
2023/10/11 14:07:49;;;;;;;6.95;2.85;;;23.10;99.90;;;;;;4981666;28;20519;-40
2023/10/11 14:10:17;;;;;;;7.03;2.67;;;23.10;99.90;;;;;;4980825;28;20580;-40
2023/10/11 14:12:45;;;;;;;8.93;2.80;;;23.10;99.90;;;;;;4992599;28;20034;-33
2023/10/11 14:15:17;;;;;;;6.32;2.60;;;23.00;99.90;;;;;;4985248;28;20038;-38
2023/10/11 14:17:49;;;;;;;6.10;2.15;;;23.00;99.90;;;;;;4990355;28;20500;-40
2023/10/11 14:20:22;;;;;;;7.68;2.60;;;23.10;99.90;;;;;;4988061;28;20084;-41
2023/10/11 14:22:53;;;;;;;5.80;2.42;;;23.00;99.90;;;;;;4987497;28;20026;-39
2023/10/11 14:25:20;;;;;;;7.53;2.80;;;23.10;99.90;;;;;;4988957;28;20081;-41
2023/10/11 14:27:49;;;;;;;12.30;2.85;;;23.00;99.90;;;;;;4982523;28;20018;-40
2023/10/11 14:30:15;;;;;;;9.10;2.67;;;22.90;99.90;;;;;;4982514;28;20058;-37
2023/10/11 14:32:45;;;;;;;9.38;2.63;;;22.80;99.90;;;;;;4984792;28;20365;-38
2023/10/11 14:35:12;;;;;;;8.50;2.60;;;22.80;99.90;;;;;;4978831;28;20043;-40
2023/10/11 14:37:40;;;;;;;6.95;2.58;;;22.80;99.90;;;;;;4986656;28;20026;-40
2023/10/11 14:40:15;;;;;;;;;;;22.80;99.90;;;;;;4989083;28;20035;-38
2023/10/11 14:42:41;;;;;;;9.40;2.85;;;22.70;99.90;;;;;;4981418;28;19990;-40
2023/10/11 14:45:11;;;;;;;5.65;2.75;;;22.70;99.90;;;;;;4977058;28;20117;-40
2023/10/11 14:47:47;;;;;;;15.25;3.10;;;22.60;99.90;;;;;;4981631;28;20084;-38
2023/10/11 14:50:14;;;;;;;8.23;2.92;;;22.50;99.90;;;;;;4981352;28;20536;-40
2023/10/11 14:52:41;;;;;;;5.70;3.00;;;22.50;99.90;;;;;;4985211;28;20122;-39
2023/10/11 14:55:08;;;;;;;8.27;2.67;;;22.50;99.90;;;;;;4991706;28;20074;-40
2023/10/11 14:57:34;;;;;;;11.65;3.03;;;22.40;99.90;;;;;;4982264;28;20026;-39
2023/10/11 15:00:00;;;;;;;10.07;3.10;;;22.40;99.90;;;;;;4986203;28;20108;-38
2023/10/11 15:02:26;;;;;;;11.30;3.13;;;22.40;99.90;;;;;;4988033;28;20062;-40
2023/10/11 15:04:53;;;;;;;8.88;3.03;;;22.40;99.90;;;;;;4983260;28;20404;-39
2023/10/11 15:07:18;;;;;;;7.50;2.50;;;22.30;99.90;;;;;;4980944;28;20040;-40
2023/10/11 15:09:46;;;;;;;7.43;3.17;;;22.30;99.90;;;;;;4985754;28;20030;-40
2023/10/11 15:12:13;;;;;;;7.00;3.47;;;22.20;99.90;;;;;;4983722;28;20081;-39
2023/10/11 15:14:39;;;;;;;8.35;3.05;;;22.10;99.90;;;;;;4984488;28;20047;-37
2023/10/11 15:17:10;;;;;;;8.10;3.00;;;22.10;99.90;;;;;;4980575;28;20034;-39
2023/10/11 15:19:35;;;;;;;8.68;2.63;;;22.00;99.90;;;;;;4988388;28;20125;-37
2023/10/11 15:22:04;;;;;;;12.57;3.15;;;21.90;99.90;;;;;;4984907;28;20102;-40
2023/10/11 15:24:29;;;;;;;7.28;3.50;;;21.90;99.90;;;;;;4987457;28;20439;-38
2023/10/11 15:26:56;;;;;;;10.30;3.70;;;21.80;99.90;;;;;;4981229;28;20026;-40
2023/10/11 15:29:22;;;;;;;10.15;3.20;;;21.80;99.90;;;;;;4986238;28;20466;-39
2023/10/11 15:31:49;;;;;;;9.00;2.70;;;21.70;99.90;;;;;;4984712;28;20030;-40
2023/10/11 15:34:18;;;;;;;10.43;3.08;;;21.70;99.90;;;;;;4988929;28;21773;-39
2023/10/11 15:36:44;;;;;;;10.45;2.80;;;21.60;99.90;;;;;;4983495;28;20030;-40
2023/10/11 15:39:10;;;;;;;5.28;2.85;;;21.50;99.90;;;;;;4989102;28;20046;-39